EDT,Max TemperatureF,Mean TemperatureF,Min TemperatureF,Max Dew PointF,MeanDew PointF,Min DewpointF,Max Humidity, Mean Humidity, Min Humidity, Max Sea Level PressureIn, Mean Sea Level PressureIn, Min Sea Level PressureIn, Max VisibilityMiles, Mean VisibilityMiles, Min VisibilityMiles, Max Wind SpeedMPH, Mean Wind SpeedMPH, Max Gust SpeedMPH,PrecipitationIn, CloudCover, Events, WindDirDegrees
2014-8-1,89,80,71,75,71,64,100,85,43,30.00,29.97,29.94,10,8,2,12,1,,0.00,0,,225
2014-8-2,91,80,69,77,74,68,100,91,55,30.02,29.98,29.95,10,9,2,12,1,,0.00,1,Rain-Thunderstorm,99
2014-8-3,87,80,73,77,74,73,100,88,66,30.01,29.97,29.92,10,10,3,14,5,21,0.18,2,Rain-Thunderstorm,23
2014-8-4,86,80,73,75,74,73,100,92,70,29.97,29.93,29.90,10,10,1,16,5,,0.00,3,Rain,351
2014-8-5,89,81,73,75,74,70,100,87,52,30.06,29.99,29.94,10,10,7,10,5,,0.00,4,,320
2014-8-6,93,82,71,75,72,68,100,84,44,30.06,30.02,29.95,10,10,10,12,2,,0.00,1,Thunderstorm,201
2014-8-7,93,81,69,77,73,70,100,88,52,30.02,29.99,29.94,10,10,5,14,1,,0.00,0,,212
2014-8-8,91,80,69,75,73,70,100,92,55,30.07,30.01,29.96,10,8,3,12,1,,0.00,1,Rain,194
2014-8-9,89,80,71,77,73,72,100,89,59,30.07,30.02,29.99,10,8,2,13,1,,0.00,1,,230
2014-8-10,91,81,71,75,73,72,100,89,55,30.06,30.01,29.97,10,10,5,12,2,,0.00,1,,237
2014-8-11,89,80,71,77,74,72,100,91,62,30.03,29.99,29.95,10,10,7,14,3,23,0.00,1,,219
2014-8-12,84,78,73,75,74,73,100,89,74,29.98,29.95,29.91,10,9,6,16,5,23,0.00,1,,203
2014-8-13,86,80,73,77,75,73,100,94,74,30.01,29.96,29.94,10,9,2,15,5,31,0.00,2,Rain-Thunderstorm,201
2014-8-14,89,80,71,77,73,72,100,94,62,30.02,29.98,29.94,10,8,0,15,3,,0.00,2,Fog-Rain-Thunderstorm,177
2014-8-15,84,76,69,77,73,70,100,97,74,30.03,29.99,29.97,10,8,2,12,1,,0.00,1,Rain-Thunderstorm,174
2014-8-16,93,82,71,75,73,68,100,88,46,30.07,30.03,29.99,10,8,2,12,3,,0.00,1,,201
2014-8-17,93,82,71,75,73,72,100,88,49,30.11,30.06,30.02,10,8,2,12,3,23,0.00,1,Thunderstorm,227
2014-8-18,91,82,73,77,73,68,100,88,55,30.05,30.01,29.95,10,10,6,16,4,,0.00,1,Rain-Thunderstorm,215
2014-8-19,93,83,73,75,73,72,100,85,49,30.04,29.98,29.95,10,10,10,17,4,16,0.00,1,,245
2014-8-20,95,84,73,77,74,72,100,82,47,30.10,30.03,29.97,10,10,10,15,4,,0.00,1,,240
2014-8-21,95,84,73,75,73,70,100,81,47,30.13,30.08,30.03,10,9,5,8,3,,0.00,1,,224
2014-8-22,95,82,69,75,72,70,100,82,47,30.10,30.04,29.98,10,10,8,12,1,,0.00,0,,151
2014-8-23,96,84,73,75,74,72,100,84,44,30.00,29.94,29.85,10,10,5,7,1,,0.00,1,Rain-Thunderstorm,185
2014-8-24,89,80,71,77,74,72,100,88,62,29.91,29.86,29.83,10,9,2,17,3,21,0.00,2,Rain-Thunderstorm,25
2014-8-25,84,78,73,73,72,68,100,83,58,29.95,29.92,29.88,10,9,2,17,9,22,0.01,4,Rain,28
2014-8-26,84,76,68,75,72,68,100,91,66,30.01,29.97,29.93,10,9,4,15,7,23,0.00,2,Rain,16
2014-8-27,87,76,64,70,66,63,100,85,43,30.03,30.00,29.97,10,10,8,12,2,,0.00,1,,36
2014-8-28,89,74,59,70,65,59,100,82,38,30.05,30.02,29.97,10,10,5,12,1,,0.00,0,,88
2014-8-29,91,78,66,75,70,64,100,88,52,30.11,30.05,30.01,10,9,5,13,1,,0.00,2,Thunderstorm,124
2014-8-30,91,80,69,75,73,70,100,88,55,30.16,30.11,30.06,10,9,2,12,3,,0.00,1,Thunderstorm,190
2014-8-31,91,80,69,75,72,68,100,88,52,30.16,30.13,30.05,10,10,10,12,1,,0.00,1,Thunderstorm,146